sensor_id;sensor_type;location;lat;lon;timestamp;temperature;humidity
4813;DHT22;2420;51.202;8.698;2023-07-08T00:01:22;16.60;1.00
4813;DHT22;2420;51.202;8.698;2023-07-08T00:03:48;16.60;1.00
4813;DHT22;2420;51.202;8.698;2023-07-08T00:06:20;16.60;1.00
4813;DHT22;2420;51.202;8.698;2023-07-08T00:08:46;16.60;1.00
4813;DHT22;2420;51.202;8.698;2023-07-08T00:11:12;16.60;1.00
4813;DHT22;2420;51.202;8.698;2023-07-08T00:13:38;16.60;1.00
4813;DHT22;2420;51.202;8.698;2023-07-08T00:16:04;16.60;1.00
4813;DHT22;2420;51.202;8.698;2023-07-08T00:18:33;16.60;1.00
4813;DHT22;2420;51.202;8.698;2023-07-08T00:20:58;16.50;1.00
4813;DHT22;2420;51.202;8.698;2023-07-08T00:23:25;16.50;1.00
4813;DHT22;2420;51.202;8.698;2023-07-08T00:25:50;16.40;1.00
4813;DHT22;2420;51.202;8.698;2023-07-08T00:28:19;16.40;1.00
4813;DHT22;2420;51.202;8.698;2023-07-08T00:30:48;16.40;1.00
4813;DHT22;2420;51.202;8.698;2023-07-08T00:33:13;16.50;1.00
4813;DHT22;2420;51.202;8.698;2023-07-08T00:35:41;16.50;1.00
4813;DHT22;2420;51.202;8.698;2023-07-08T00:38:14;16.40;1.00
4813;DHT22;2420;51.202;8.698;2023-07-08T00:40:59;16.30;1.00
4813;DHT22;2420;51.202;8.698;2023-07-08T00:43:49;16.40;1.00
4813;DHT22;2420;51.202;8.698;2023-07-08T00:51:49;16.30;1.00
4813;DHT22;2420;51.202;8.698;2023-07-08T00:54:17;16.20;1.00
4813;DHT22;2420;51.202;8.698;2023-07-08T00:56:53;16.30;1.00
4813;DHT22;2420;51.202;8.698;2023-07-08T00:59:25;16.30;1.00
4813;DHT22;2420;51.202;8.698;2023-07-08T01:01:52;16.20;1.00
4813;DHT22;2420;51.202;8.698;2023-07-08T01:04:23;16.20;1.00
4813;DHT22;2420;51.202;8.698;2023-07-08T01:06:52;16.10;1.00
4813;DHT22;2420;51.202;8.698;2023-07-08T01:09:24;16.10;1.00
4813;DHT22;2420;51.202;8.698;2023-07-08T01:11:51;16.10;1.00
4813;DHT22;2420;51.202;8.698;2023-07-08T01:14:18;16.10;1.00
4813;DHT22;2420;51.202;8.698;2023-07-08T01:16:44;16.00;1.00
4813;DHT22;2420;51.202;8.698;2023-07-08T01:19:16;16.10;1.00
4813;DHT22;2420;51.202;8.698;2023-07-08T01:24:18;16.10;1.00
4813;DHT22;2420;51.202;8.698;2023-07-08T01:26:44;16.10;1.00
4813;DHT22;2420;51.202;8.698;2023-07-08T01:29:12;16.10;1.00
4813;DHT22;2420;51.202;8.698;2023-07-08T01:31:37;16.10;1.00
4813;DHT22;2420;51.202;8.698;2023-07-08T01:34:04;16.10;1.00
4813;DHT22;2420;51.202;8.698;2023-07-08T01:36:34;16.10;1.00
4813;DHT22;2420;51.202;8.698;2023-07-08T01:39:02;16.00;1.00
4813;DHT22;2420;51.202;8.698;2023-07-08T01:41:28;16.00;1.00
4813;DHT22;2420;51.202;8.698;2023-07-08T01:43:53;15.90;1.00
4813;DHT22;2420;51.202;8.698;2023-07-08T01:46:24;15.90;1.00
4813;DHT22;2420;51.202;8.698;2023-07-08T01:48:57;15.90;1.00
4813;DHT22;2420;51.202;8.698;2023-07-08T01:51:26;15.90;1.00
4813;DHT22;2420;51.202;8.698;2023-07-08T01:53:52;15.90;1.00
4813;DHT22;2420;51.202;8.698;2023-07-08T01:56:17;15.90;1.00
4813;DHT22;2420;51.202;8.698;2023-07-08T01:58:43;15.90;1.00
4813;DHT22;2420;51.202;8.698;2023-07-08T02:01:09;15.90;1.00
4813;DHT22;2420;51.202;8.698;2023-07-08T02:03:35;15.80;1.00
4813;DHT22;2420;51.202;8.698;2023-07-08T02:06:01;15.90;1.00
4813;DHT22;2420;51.202;8.698;2023-07-08T02:08:27;15.90;1.00
4813;DHT22;2420;51.202;8.698;2023-07-08T02:10:55;15.80;1.00
4813;DHT22;2420;51.202;8.698;2023-07-08T02:13:22;15.80;1.00
4813;DHT22;2420;51.202;8.698;2023-07-08T02:15:49;15.70;1.00
4813;DHT22;2420;51.202;8.698;2023-07-08T02:18:15;15.70;1.00
4813;DHT22;2420;51.202;8.698;2023-07-08T02:20:42;15.60;1.00
4813;DHT22;2420;51.202;8.698;2023-07-08T02:23:08;15.60;1.00
4813;DHT22;2420;51.202;8.698;2023-07-08T02:25:33;15.70;1.00
4813;DHT22;2420;51.202;8.698;2023-07-08T02:27:59;15.70;1.00
4813;DHT22;2420;51.202;8.698;2023-07-08T02:30:25;15.70;1.00
4813;DHT22;2420;51.202;8.698;2023-07-08T02:32:50;15.60;1.00
4813;DHT22;2420;51.202;8.698;2023-07-08T02:35:28;15.70;1.00
4813;DHT22;2420;51.202;8.698;2023-07-08T02:37:54;15.60;1.00
4813;DHT22;2420;51.202;8.698;2023-07-08T02:40:21;15.60;1.00
4813;DHT22;2420;51.202;8.698;2023-07-08T02:42:47;15.60;1.00
4813;DHT22;2420;51.202;8.698;2023-07-08T02:45:12;15.50;1.00
4813;DHT22;2420;51.202;8.698;2023-07-08T02:47:38;15.50;1.00
4813;DHT22;2420;51.202;8.698;2023-07-08T02:50:04;15.40;1.00
4813;DHT22;2420;51.202;8.698;2023-07-08T02:52:30;15.50;1.00
4813;DHT22;2420;51.202;8.698;2023-07-08T02:54:56;15.50;1.00
4813;DHT22;2420;51.202;8.698;2023-07-08T02:57:21;15.50;1.00
4813;DHT22;2420;51.202;8.698;2023-07-08T02:59:47;15.50;1.00
4813;DHT22;2420;51.202;8.698;2023-07-08T03:02:12;15.50;1.00
4813;DHT22;2420;51.202;8.698;2023-07-08T03:04:38;15.50;1.00
4813;DHT22;2420;51.202;8.698;2023-07-08T03:07:04;15.50;1.00
4813;DHT22;2420;51.202;8.698;2023-07-08T03:09:29;15.40;1.00
4813;DHT22;2420;51.202;8.698;2023-07-08T03:11:57;15.40;1.00
4813;DHT22;2420;51.202;8.698;2023-07-08T03:14:23;15.50;1.00
4813;DHT22;2420;51.202;8.698;2023-07-08T03:16:49;15.50;1.00
4813;DHT22;2420;51.202;8.698;2023-07-08T03:19:14;15.50;1.00
4813;DHT22;2420;51.202;8.698;2023-07-08T03:21:40;15.50;1.00
4813;DHT22;2420;51.202;8.698;2023-07-08T03:24:10;15.40;1.00
4813;DHT22;2420;51.202;8.698;2023-07-08T03:26:36;15.40;1.00
4813;DHT22;2420;51.202;8.698;2023-07-08T03:29:02;15.40;1.00
4813;DHT22;2420;51.202;8.698;2023-07-08T03:31:28;15.40;1.00
4813;DHT22;2420;51.202;8.698;2023-07-08T03:33:53;15.40;1.00
4813;DHT22;2420;51.202;8.698;2023-07-08T03:36:19;15.50;1.00
4813;DHT22;2420;51.202;8.698;2023-07-08T03:38:51;15.50;1.00
4813;DHT22;2420;51.202;8.698;2023-07-08T03:41:18;15.50;1.00
4813;DHT22;2420;51.202;8.698;2023-07-08T03:43:43;15.50;1.00
4813;DHT22;2420;51.202;8.698;2023-07-08T03:46:13;15.50;1.00
4813;DHT22;2420;51.202;8.698;2023-07-08T03:48:39;15.60;1.00
4813;DHT22;2420;51.202;8.698;2023-07-08T03:51:14;15.60;1.00
4813;DHT22;2420;51.202;8.698;2023-07-08T03:53:42;15.70;1.00
4813;DHT22;2420;51.202;8.698;2023-07-08T03:56:11;15.80;1.00
4813;DHT22;2420;51.202;8.698;2023-07-08T03:58:38;15.80;1.00
4813;DHT22;2420;51.202;8.698;2023-07-08T04:01:04;15.90;1.00
4813;DHT22;2420;51.202;8.698;2023-07-08T04:03:29;15.90;1.00
4813;DHT22;2420;51.202;8.698;2023-07-08T04:05:55;15.90;1.00
4813;DHT22;2420;51.202;8.698;2023-07-08T04:08:21;16.00;1.00
4813;DHT22;2420;51.202;8.698;2023-07-08T04:10:46;16.10;1.00
4813;DHT22;2420;51.202;8.698;2023-07-08T04:13:12;16.00;1.00
4813;DHT22;2420;51.202;8.698;2023-07-08T04:15:38;16.10;1.00
4813;DHT22;2420;51.202;8.698;2023-07-08T04:18:03;16.20;1.00
4813;DHT22;2420;51.202;8.698;2023-07-08T04:20:29;16.20;1.00
4813;DHT22;2420;51.202;8.698;2023-07-08T04:22:55;16.30;1.00
4813;DHT22;2420;51.202;8.698;2023-07-08T04:25:21;16.30;1.00
4813;DHT22;2420;51.202;8.698;2023-07-08T04:27:47;16.30;1.00
4813;DHT22;2420;51.202;8.698;2023-07-08T04:30:21;16.40;1.00
4813;DHT22;2420;51.202;8.698;2023-07-08T04:32:49;16.40;1.00
4813;DHT22;2420;51.202;8.698;2023-07-08T04:35:14;16.50;1.00
4813;DHT22;2420;51.202;8.698;2023-07-08T04:37:40;16.50;1.00
4813;DHT22;2420;51.202;8.698;2023-07-08T04:40:09;16.50;1.00
4813;DHT22;2420;51.202;8.698;2023-07-08T04:42:38;16.50;1.00
4813;DHT22;2420;51.202;8.698;2023-07-08T04:45:04;16.50;1.00
4813;DHT22;2420;51.202;8.698;2023-07-08T04:47:31;16.60;1.00
4813;DHT22;2420;51.202;8.698;2023-07-08T04:49:58;16.70;1.00
4813;DHT22;2420;51.202;8.698;2023-07-08T04:52:24;16.70;1.00
4813;DHT22;2420;51.202;8.698;2023-07-08T04:54:49;16.70;1.00
4813;DHT22;2420;51.202;8.698;2023-07-08T04:57:15;16.80;1.00
4813;DHT22;2420;51.202;8.698;2023-07-08T04:59:42;17.00;1.00
4813;DHT22;2420;51.202;8.698;2023-07-08T05:02:07;16.80;1.00
4813;DHT22;2420;51.202;8.698;2023-07-08T05:04:33;16.90;1.00
4813;DHT22;2420;51.202;8.698;2023-07-08T05:06:58;17.10;1.00
4813;DHT22;2420;51.202;8.698;2023-07-08T05:09:24;17.20;1.00
4813;DHT22;2420;51.202;8.698;2023-07-08T05:11:51;17.30;1.00
4813;DHT22;2420;51.202;8.698;2023-07-08T05:14:17;17.40;1.00
4813;DHT22;2420;51.202;8.698;2023-07-08T05:16:42;17.50;1.00
4813;DHT22;2420;51.202;8.698;2023-07-08T05:19:08;17.60;1.00
4813;DHT22;2420;51.202;8.698;2023-07-08T05:21:34;17.60;1.00
4813;DHT22;2420;51.202;8.698;2023-07-08T05:24:04;17.70;1.00
4813;DHT22;2420;51.202;8.698;2023-07-08T05:26:30;17.80;1.00
4813;DHT22;2420;51.202;8.698;2023-07-08T05:28:56;17.90;1.00
4813;DHT22;2420;51.202;8.698;2023-07-08T05:31:21;18.00;1.00
4813;DHT22;2420;51.202;8.698;2023-07-08T05:33:47;18.10;1.00
4813;DHT22;2420;51.202;8.698;2023-07-08T05:36:12;18.20;1.00
4813;DHT22;2420;51.202;8.698;2023-07-08T05:38:38;18.30;1.00
4813;DHT22;2420;51.202;8.698;2023-07-08T05:41:03;18.40;1.00
4813;DHT22;2420;51.202;8.698;2023-07-08T05:43:29;18.50;1.00
4813;DHT22;2420;51.202;8.698;2023-07-08T05:45:59;18.60;1.00
4813;DHT22;2420;51.202;8.698;2023-07-08T05:48:26;18.70;1.00
4813;DHT22;2420;51.202;8.698;2023-07-08T05:50:52;18.70;1.00
4813;DHT22;2420;51.202;8.698;2023-07-08T05:53:19;18.80;1.00
4813;DHT22;2420;51.202;8.698;2023-07-08T05:55:45;18.80;1.00
4813;DHT22;2420;51.202;8.698;2023-07-08T05:58:11;18.80;1.00
4813;DHT22;2420;51.202;8.698;2023-07-08T06:00:41;18.80;1.00
4813;DHT22;2420;51.202;8.698;2023-07-08T06:03:06;18.70;1.00
4813;DHT22;2420;51.202;8.698;2023-07-08T06:05:32;18.70;1.00
4813;DHT22;2420;51.202;8.698;2023-07-08T06:07:58;18.70;1.00
4813;DHT22;2420;51.202;8.698;2023-07-08T06:10:24;18.70;1.00
4813;DHT22;2420;51.202;8.698;2023-07-08T06:12:50;18.60;1.00
4813;DHT22;2420;51.202;8.698;2023-07-08T06:15:15;18.60;1.00
4813;DHT22;2420;51.202;8.698;2023-07-08T06:17:41;18.60;1.00
4813;DHT22;2420;51.202;8.698;2023-07-08T06:20:07;18.70;1.00
4813;DHT22;2420;51.202;8.698;2023-07-08T06:22:33;18.80;1.00
4813;DHT22;2420;51.202;8.698;2023-07-08T06:24:58;18.90;1.00
4813;DHT22;2420;51.202;8.698;2023-07-08T06:27:24;19.10;1.00
4813;DHT22;2420;51.202;8.698;2023-07-08T06:29:50;19.50;1.00
4813;DHT22;2420;51.202;8.698;2023-07-08T06:32:16;19.70;1.00
4813;DHT22;2420;51.202;8.698;2023-07-08T06:34:41;20.00;1.00
4813;DHT22;2420;51.202;8.698;2023-07-08T06:37:07;20.30;1.00
4813;DHT22;2420;51.202;8.698;2023-07-08T06:39:32;20.50;1.00
4813;DHT22;2420;51.202;8.698;2023-07-08T06:41:58;20.70;1.00
4813;DHT22;2420;51.202;8.698;2023-07-08T06:44:23;20.90;1.00
4813;DHT22;2420;51.202;8.698;2023-07-08T06:46:50;21.00;1.00
4813;DHT22;2420;51.202;8.698;2023-07-08T06:49:16;21.10;1.00
4813;DHT22;2420;51.202;8.698;2023-07-08T06:51:42;21.20;1.00
4813;DHT22;2420;51.202;8.698;2023-07-08T06:54:08;21.40;1.00
4813;DHT22;2420;51.202;8.698;2023-07-08T06:56:40;21.40;1.00
4813;DHT22;2420;51.202;8.698;2023-07-08T06:59:07;21.40;1.00
4813;DHT22;2420;51.202;8.698;2023-07-08T07:01:33;21.50;1.00
4813;DHT22;2420;51.202;8.698;2023-07-08T07:03:59;21.50;1.00
4813;DHT22;2420;51.202;8.698;2023-07-08T07:06:25;21.60;1.00
4813;DHT22;2420;51.202;8.698;2023-07-08T07:08:51;21.60;1.00
4813;DHT22;2420;51.202;8.698;2023-07-08T07:11:16;21.60;1.00
4813;DHT22;2420;51.202;8.698;2023-07-08T07:13:44;21.60;1.00
4813;DHT22;2420;51.202;8.698;2023-07-08T07:16:10;21.60;1.00
4813;DHT22;2420;51.202;8.698;2023-07-08T07:18:35;21.80;1.00
4813;DHT22;2420;51.202;8.698;2023-07-08T07:21:01;21.80;1.00
4813;DHT22;2420;51.202;8.698;2023-07-08T07:23:26;21.90;1.00
4813;DHT22;2420;51.202;8.698;2023-07-08T07:25:52;22.00;1.00
4813;DHT22;2420;51.202;8.698;2023-07-08T07:28:17;22.10;1.00
4813;DHT22;2420;51.202;8.698;2023-07-08T07:30:44;22.40;1.00
4813;DHT22;2420;51.202;8.698;2023-07-08T07:33:10;22.60;1.00
4813;DHT22;2420;51.202;8.698;2023-07-08T07:35:42;22.70;1.00
4813;DHT22;2420;51.202;8.698;2023-07-08T07:38:07;22.90;1.00
4813;DHT22;2420;51.202;8.698;2023-07-08T07:40:33;23.10;1.00
4813;DHT22;2420;51.202;8.698;2023-07-08T07:42:58;23.20;1.00
4813;DHT22;2420;51.202;8.698;2023-07-08T07:45:24;23.40;1.00
4813;DHT22;2420;51.202;8.698;2023-07-08T07:47:49;23.60;1.00
4813;DHT22;2420;51.202;8.698;2023-07-08T07:50:15;23.70;1.00
4813;DHT22;2420;51.202;8.698;2023-07-08T07:52:41;23.80;1.00
4813;DHT22;2420;51.202;8.698;2023-07-08T07:55:07;23.80;1.00
4813;DHT22;2420;51.202;8.698;2023-07-08T07:57:33;24.00;1.00
4813;DHT22;2420;51.202;8.698;2023-07-08T07:59:59;24.30;1.00
4813;DHT22;2420;51.202;8.698;2023-07-08T08:02:24;24.50;1.00
4813;DHT22;2420;51.202;8.698;2023-07-08T08:04:50;24.50;1.00
4813;DHT22;2420;51.202;8.698;2023-07-08T08:07:15;24.60;1.00
4813;DHT22;2420;51.202;8.698;2023-07-08T08:09:41;24.90;1.00
4813;DHT22;2420;51.202;8.698;2023-07-08T08:12:09;25.20;1.00
4813;DHT22;2420;51.202;8.698;2023-07-08T08:14:35;25.40;1.00
4813;DHT22;2420;51.202;8.698;2023-07-08T08:17:01;25.70;1.00
4813;DHT22;2420;51.202;8.698;2023-07-08T08:19:27;25.90;1.00
4813;DHT22;2420;51.202;8.698;2023-07-08T08:21:53;26.10;1.00
4813;DHT22;2420;51.202;8.698;2023-07-08T08:24:18;26.30;1.00
4813;DHT22;2420;51.202;8.698;2023-07-08T08:26:45;26.10;1.00
4813;DHT22;2420;51.202;8.698;2023-07-08T08:29:11;26.20;1.00
4813;DHT22;2420;51.202;8.698;2023-07-08T08:31:36;26.30;1.00
4813;DHT22;2420;51.202;8.698;2023-07-08T08:34:02;26.20;1.00
4813;DHT22;2420;51.202;8.698;2023-07-08T08:36:27;26.30;1.00
4813;DHT22;2420;51.202;8.698;2023-07-08T08:38:53;26.50;1.00
4813;DHT22;2420;51.202;8.698;2023-07-08T08:41:32;26.70;1.00
4813;DHT22;2420;51.202;8.698;2023-07-08T08:43:58;26.70;1.00
4813;DHT22;2420;51.202;8.698;2023-07-08T08:46:53;26.80;1.00
4813;DHT22;2420;51.202;8.698;2023-07-08T08:49:25;26.90;1.00
4813;DHT22;2420;51.202;8.698;2023-07-08T08:51:52;26.90;1.00
4813;DHT22;2420;51.202;8.698;2023-07-08T08:54:18;26.90;1.00
4813;DHT22;2420;51.202;8.698;2023-07-08T08:56:50;27.00;1.00
4813;DHT22;2420;51.202;8.698;2023-07-08T08:59:28;26.90;1.00
4813;DHT22;2420;51.202;8.698;2023-07-08T09:01:58;27.00;1.00
4813;DHT22;2420;51.202;8.698;2023-07-08T09:04:33;27.20;1.00
4813;DHT22;2420;51.202;8.698;2023-07-08T09:07:14;27.20;1.00
4813;DHT22;2420;51.202;8.698;2023-07-08T09:09:54;27.30;1.00
4813;DHT22;2420;51.202;8.698;2023-07-08T09:12:26;27.50;1.00
4813;DHT22;2420;51.202;8.698;2023-07-08T09:14:52;27.70;1.00
4813;DHT22;2420;51.202;8.698;2023-07-08T09:19:58;27.80;1.00
4813;DHT22;2420;51.202;8.698;2023-07-08T09:22:40;27.80;1.00
4813;DHT22;2420;51.202;8.698;2023-07-08T09:27:52;28.20;1.00
4813;DHT22;2420;51.202;8.698;2023-07-08T09:30:21;28.30;1.00
4813;DHT22;2420;51.202;8.698;2023-07-08T09:32:48;28.40;1.00
4813;DHT22;2420;51.202;8.698;2023-07-08T09:37:46;28.50;1.00
4813;DHT22;2420;51.202;8.698;2023-07-08T09:40:32;28.60;1.00
4813;DHT22;2420;51.202;8.698;2023-07-08T09:43:25;28.80;1.00
4813;DHT22;2420;51.202;8.698;2023-07-08T09:45:51;28.90;1.00
4813;DHT22;2420;51.202;8.698;2023-07-08T09:48:24;29.10;1.00
4813;DHT22;2420;51.202;8.698;2023-07-08T09:50:52;29.10;1.00
4813;DHT22;2420;51.202;8.698;2023-07-08T09:53:18;29.00;1.00
4813;DHT22;2420;51.202;8.698;2023-07-08T09:55:44;29.20;1.00
4813;DHT22;2420;51.202;8.698;2023-07-08T09:58:34;29.20;1.00
4813;DHT22;2420;51.202;8.698;2023-07-08T10:01:13;29.20;1.00
4813;DHT22;2420;51.202;8.698;2023-07-08T10:03:39;29.30;1.00
4813;DHT22;2420;51.202;8.698;2023-07-08T10:06:17;29.20;1.00
4813;DHT22;2420;51.202;8.698;2023-07-08T10:08:44;29.30;1.00
4813;DHT22;2420;51.202;8.698;2023-07-08T10:11:32;29.20;1.00
4813;DHT22;2420;51.202;8.698;2023-07-08T10:14:23;29.10;1.00
4813;DHT22;2420;51.202;8.698;2023-07-08T10:16:50;29.00;1.00
4813;DHT22;2420;51.202;8.698;2023-07-08T10:19:18;29.10;1.00
4813;DHT22;2420;51.202;8.698;2023-07-08T10:21:53;29.10;1.00
4813;DHT22;2420;51.202;8.698;2023-07-08T10:27:40;29.20;1.00
4813;DHT22;2420;51.202;8.698;2023-07-08T10:30:20;29.40;1.00
4813;DHT22;2420;51.202;8.698;2023-07-08T10:35:31;29.40;1.00
4813;DHT22;2420;51.202;8.698;2023-07-08T10:38:19;29.50;1.00
4813;DHT22;2420;51.202;8.698;2023-07-08T10:40:53;29.80;1.00
4813;DHT22;2420;51.202;8.698;2023-07-08T10:49:05;30.20;1.00
4813;DHT22;2420;51.202;8.698;2023-07-08T10:52:14;30.30;1.00
4813;DHT22;2420;51.202;8.698;2023-07-08T10:55:05;30.20;1.00
4813;DHT22;2420;51.202;8.698;2023-07-08T11:00:27;30.00;1.00
4813;DHT22;2420;51.202;8.698;2023-07-08T11:08:26;29.90;1.00
4813;DHT22;2420;51.202;8.698;2023-07-08T11:11:00;30.00;1.00
4813;DHT22;2420;51.202;8.698;2023-07-08T11:13:28;30.10;1.00
4813;DHT22;2420;51.202;8.698;2023-07-08T11:16:06;30.30;1.00
4813;DHT22;2420;51.202;8.698;2023-07-08T11:18:52;30.20;1.00
4813;DHT22;2420;51.202;8.698;2023-07-08T11:24:12;30.20;1.00
4813;DHT22;2420;51.202;8.698;2023-07-08T11:26:47;30.40;1.00
4813;DHT22;2420;51.202;8.698;2023-07-08T11:31:48;30.40;1.00
4813;DHT22;2420;51.202;8.698;2023-07-08T11:34:15;30.50;1.00
4813;DHT22;2420;51.202;8.698;2023-07-08T11:36:42;30.50;1.00
4813;DHT22;2420;51.202;8.698;2023-07-08T11:39:33;30.80;1.00
4813;DHT22;2420;51.202;8.698;2023-07-08T11:42:20;30.80;1.00
4813;DHT22;2420;51.202;8.698;2023-07-08T11:44:56;30.90;1.00
4813;DHT22;2420;51.202;8.698;2023-07-08T11:47:37;30.90;1.00
4813;DHT22;2420;51.202;8.698;2023-07-08T11:50:12;30.80;1.00
4813;DHT22;2420;51.202;8.698;2023-07-08T11:52:53;30.80;1.00
4813;DHT22;2420;51.202;8.698;2023-07-08T11:55:26;30.60;1.00
4813;DHT22;2420;51.202;8.698;2023-07-08T11:57:54;30.50;1.00
4813;DHT22;2420;51.202;8.698;2023-07-08T12:00:24;30.60;1.00
4813;DHT22;2420;51.202;8.698;2023-07-08T12:02:56;30.60;1.00
4813;DHT22;2420;51.202;8.698;2023-07-08T12:07:56;30.60;1.00
4813;DHT22;2420;51.202;8.698;2023-07-08T12:10:37;30.60;1.00
4813;DHT22;2420;51.202;8.698;2023-07-08T12:13:11;30.60;1.00
4813;DHT22;2420;51.202;8.698;2023-07-08T12:15:37;30.50;1.00
4813;DHT22;2420;51.202;8.698;2023-07-08T12:20:40;30.60;1.00
4813;DHT22;2420;51.202;8.698;2023-07-08T12:23:17;30.80;1.00
4813;DHT22;2420;51.202;8.698;2023-07-08T12:25:43;30.80;1.00
4813;DHT22;2420;51.202;8.698;2023-07-08T12:28:10;30.80;1.00
4813;DHT22;2420;51.202;8.698;2023-07-08T12:30:38;30.80;1.00
4813;DHT22;2420;51.202;8.698;2023-07-08T12:33:10;30.70;1.00
4813;DHT22;2420;51.202;8.698;2023-07-08T12:35:36;30.70;1.00
4813;DHT22;2420;51.202;8.698;2023-07-08T12:38:09;30.60;1.00
4813;DHT22;2420;51.202;8.698;2023-07-08T12:40:37;30.70;1.00
4813;DHT22;2420;51.202;8.698;2023-07-08T12:43:07;30.50;1.00
4813;DHT22;2420;51.202;8.698;2023-07-08T12:45:34;30.60;1.00
4813;DHT22;2420;51.202;8.698;2023-07-08T12:47:59;30.50;1.00
4813;DHT22;2420;51.202;8.698;2023-07-08T12:50:25;30.60;1.00
4813;DHT22;2420;51.202;8.698;2023-07-08T12:52:51;30.70;1.00
4813;DHT22;2420;51.202;8.698;2023-07-08T12:55:16;30.80;1.00
4813;DHT22;2420;51.202;8.698;2023-07-08T12:57:45;30.80;1.00
4813;DHT22;2420;51.202;8.698;2023-07-08T13:00:16;30.80;1.00
4813;DHT22;2420;51.202;8.698;2023-07-08T13:02:47;30.80;1.00
4813;DHT22;2420;51.202;8.698;2023-07-08T13:05:14;30.90;1.00
4813;DHT22;2420;51.202;8.698;2023-07-08T13:07:42;30.90;1.00
4813;DHT22;2420;51.202;8.698;2023-07-08T13:10:17;30.90;1.00
4813;DHT22;2420;51.202;8.698;2023-07-08T13:12:44;30.80;1.00
4813;DHT22;2420;51.202;8.698;2023-07-08T13:15:18;30.80;1.00
4813;DHT22;2420;51.202;8.698;2023-07-08T13:17:46;30.90;1.00
4813;DHT22;2420;51.202;8.698;2023-07-08T13:20:15;30.90;1.00
4813;DHT22;2420;51.202;8.698;2023-07-08T13:22:42;30.80;1.00
4813;DHT22;2420;51.202;8.698;2023-07-08T13:25:16;30.80;1.00
4813;DHT22;2420;51.202;8.698;2023-07-08T13:27:42;30.80;1.00
4813;DHT22;2420;51.202;8.698;2023-07-08T13:30:21;30.90;1.00
4813;DHT22;2420;51.202;8.698;2023-07-08T13:32:52;30.90;1.00
4813;DHT22;2420;51.202;8.698;2023-07-08T13:35:38;30.90;1.00
4813;DHT22;2420;51.202;8.698;2023-07-08T13:38:05;31.00;1.00
4813;DHT22;2420;51.202;8.698;2023-07-08T13:40:31;31.00;1.00
4813;DHT22;2420;51.202;8.698;2023-07-08T13:42:57;30.90;1.00
4813;DHT22;2420;51.202;8.698;2023-07-08T13:45:27;31.00;1.00
4813;DHT22;2420;51.202;8.698;2023-07-08T13:48:11;31.20;1.00
4813;DHT22;2420;51.202;8.698;2023-07-08T13:56:33;31.20;1.00
4813;DHT22;2420;51.202;8.698;2023-07-08T13:59:08;31.10;1.00
4813;DHT22;2420;51.202;8.698;2023-07-08T14:01:37;31.00;1.00
4813;DHT22;2420;51.202;8.698;2023-07-08T14:04:03;30.90;1.00
4813;DHT22;2420;51.202;8.698;2023-07-08T14:06:35;30.80;1.00
4813;DHT22;2420;51.202;8.698;2023-07-08T14:09:16;30.90;1.00
4813;DHT22;2420;51.202;8.698;2023-07-08T14:11:42;30.90;1.00
4813;DHT22;2420;51.202;8.698;2023-07-08T14:14:08;31.00;1.00
4813;DHT22;2420;51.202;8.698;2023-07-08T14:16:52;30.90;1.00
4813;DHT22;2420;51.202;8.698;2023-07-08T14:19:27;30.90;1.00
4813;DHT22;2420;51.202;8.698;2023-07-08T14:21:56;30.80;1.00
4813;DHT22;2420;51.202;8.698;2023-07-08T14:24:22;30.90;1.00
4813;DHT22;2420;51.202;8.698;2023-07-08T14:26:48;30.80;1.00
4813;DHT22;2420;51.202;8.698;2023-07-08T14:29:14;30.70;1.00
4813;DHT22;2420;51.202;8.698;2023-07-08T14:31:40;30.70;1.00
4813;DHT22;2420;51.202;8.698;2023-07-08T14:34:08;30.80;1.00
4813;DHT22;2420;51.202;8.698;2023-07-08T14:36:34;31.00;1.00
4813;DHT22;2420;51.202;8.698;2023-07-08T14:39:00;31.00;1.00
4813;DHT22;2420;51.202;8.698;2023-07-08T14:41:27;31.00;1.00
4813;DHT22;2420;51.202;8.698;2023-07-08T14:43:54;30.90;1.00
4813;DHT22;2420;51.202;8.698;2023-07-08T14:46:20;30.90;1.00
4813;DHT22;2420;51.202;8.698;2023-07-08T14:48:45;30.80;1.00
4813;DHT22;2420;51.202;8.698;2023-07-08T14:51:11;30.60;1.00
4813;DHT22;2420;51.202;8.698;2023-07-08T14:53:36;30.40;1.00
4813;DHT22;2420;51.202;8.698;2023-07-08T14:56:11;30.20;1.00
4813;DHT22;2420;51.202;8.698;2023-07-08T14:58:40;30.30;1.00
4813;DHT22;2420;51.202;8.698;2023-07-08T15:01:20;30.30;1.00
4813;DHT22;2420;51.202;8.698;2023-07-08T15:03:46;30.30;1.00
4813;DHT22;2420;51.202;8.698;2023-07-08T15:06:12;30.30;1.00
4813;DHT22;2420;51.202;8.698;2023-07-08T15:08:37;30.50;1.00
4813;DHT22;2420;51.202;8.698;2023-07-08T15:11:04;30.60;1.00
4813;DHT22;2420;51.202;8.698;2023-07-08T15:13:32;30.60;1.00
4813;DHT22;2420;51.202;8.698;2023-07-08T15:15:59;30.60;1.00
4813;DHT22;2420;51.202;8.698;2023-07-08T15:18:24;30.50;1.00
4813;DHT22;2420;51.202;8.698;2023-07-08T15:20:50;30.30;1.00
4813;DHT22;2420;51.202;8.698;2023-07-08T15:23:16;30.20;1.00
4813;DHT22;2420;51.202;8.698;2023-07-08T15:25:43;30.10;1.00
4813;DHT22;2420;51.202;8.698;2023-07-08T15:28:25;30.00;1.00
4813;DHT22;2420;51.202;8.698;2023-07-08T15:30:58;30.10;1.00
4813;DHT22;2420;51.202;8.698;2023-07-08T15:33:25;30.10;1.00
4813;DHT22;2420;51.202;8.698;2023-07-08T15:35:51;30.10;1.00
4813;DHT22;2420;51.202;8.698;2023-07-08T15:38:18;30.10;1.00
4813;DHT22;2420;51.202;8.698;2023-07-08T15:40:43;30.10;1.00
4813;DHT22;2420;51.202;8.698;2023-07-08T15:43:12;30.00;1.00
4813;DHT22;2420;51.202;8.698;2023-07-08T15:45:38;30.00;1.00
4813;DHT22;2420;51.202;8.698;2023-07-08T15:48:10;29.90;1.00
4813;DHT22;2420;51.202;8.698;2023-07-08T15:50:37;30.00;1.00
4813;DHT22;2420;51.202;8.698;2023-07-08T15:53:02;30.00;1.00
4813;DHT22;2420;51.202;8.698;2023-07-08T15:55:30;30.00;1.00
4813;DHT22;2420;51.202;8.698;2023-07-08T15:58:06;29.90;1.00
4813;DHT22;2420;51.202;8.698;2023-07-08T16:00:37;29.80;1.00
4813;DHT22;2420;51.202;8.698;2023-07-08T16:03:07;29.90;1.00
4813;DHT22;2420;51.202;8.698;2023-07-08T16:05:34;29.90;1.00
4813;DHT22;2420;51.202;8.698;2023-07-08T16:08:01;29.90;1.00
4813;DHT22;2420;51.202;8.698;2023-07-08T16:10:28;29.90;1.00
4813;DHT22;2420;51.202;8.698;2023-07-08T16:12:54;29.80;1.00
4813;DHT22;2420;51.202;8.698;2023-07-08T16:15:32;29.90;1.00
4813;DHT22;2420;51.202;8.698;2023-07-08T16:17:58;29.80;1.00
4813;DHT22;2420;51.202;8.698;2023-07-08T16:20:28;29.70;1.00
4813;DHT22;2420;51.202;8.698;2023-07-08T16:22:53;29.60;1.00
4813;DHT22;2420;51.202;8.698;2023-07-08T16:25:27;29.50;1.00
4813;DHT22;2420;51.202;8.698;2023-07-08T16:27:52;29.40;1.00
4813;DHT22;2420;51.202;8.698;2023-07-08T16:30:20;29.30;1.00
4813;DHT22;2420;51.202;8.698;2023-07-08T16:32:47;29.30;1.00
4813;DHT22;2420;51.202;8.698;2023-07-08T16:35:16;29.20;1.00
4813;DHT22;2420;51.202;8.698;2023-07-08T16:37:45;29.30;1.00
4813;DHT22;2420;51.202;8.698;2023-07-08T16:42:43;29.30;1.00
4813;DHT22;2420;51.202;8.698;2023-07-08T16:45:14;29.20;1.00
4813;DHT22;2420;51.202;8.698;2023-07-08T16:47:40;29.20;1.00
4813;DHT22;2420;51.202;8.698;2023-07-08T16:50:06;29.20;1.00
4813;DHT22;2420;51.202;8.698;2023-07-08T16:52:33;29.30;1.00
4813;DHT22;2420;51.202;8.698;2023-07-08T16:54:58;29.20;1.00
4813;DHT22;2420;51.202;8.698;2023-07-08T16:57:24;29.20;1.00
4813;DHT22;2420;51.202;8.698;2023-07-08T16:59:52;29.00;1.00
4813;DHT22;2420;51.202;8.698;2023-07-08T17:02:18;29.00;1.00
4813;DHT22;2420;51.202;8.698;2023-07-08T17:04:47;29.10;1.00
4813;DHT22;2420;51.202;8.698;2023-07-08T17:07:16;29.10;1.00
4813;DHT22;2420;51.202;8.698;2023-07-08T17:09:41;29.00;1.00
4813;DHT22;2420;51.202;8.698;2023-07-08T17:12:08;28.90;1.00
4813;DHT22;2420;51.202;8.698;2023-07-08T17:14:34;28.90;1.00
4813;DHT22;2420;51.202;8.698;2023-07-08T17:17:01;29.00;1.00
4813;DHT22;2420;51.202;8.698;2023-07-08T17:19:27;29.10;1.00
4813;DHT22;2420;51.202;8.698;2023-07-08T17:21:52;29.00;1.00